San Leandro, California
Current Conditions -  °F | °C
As of 9:53 PM on Wednesday 17 Dec 2014 (Local Time) from KOAK Reporting Station
Light Rain Light Rain  
Wind Chill: 51°   Ceiling: 4000
Heat Index: 51°   Visibility: 7mi
Dew Point: 48°   Wind: 12mph
Humidity: 89%   Direction: 110°ESE
Pressure: 30.07"   Gusts: NA
Location:  37.73°N, 122.15°W
Report Text: KOAK 180553Z 11010KT 7SM -RA FEW016 SCT030 OVC040 11/09 A3007 RMK AO2 SLP183 P0001 60010 T01060089 10133 20106 50005
Loading
Personal Weather Stations






























Interactive Weather Map New forecast layout! Learn more

10-Day Weather Forecast

Advertisements
Track Severe Weather on mobile